This is the latest recevied weather packets stored in our database for station/object I8ZSE-10. If no packets are shown the sender has not sent any weather packets the latest 10 day(s).
| Time | Temp. | Humidity | Pressure | Rain* | Wind** | Luminosity | Snow |
|---|---|---|---|---|---|---|---|
| 1788087030 | 32.22° C | 27% | - | 0 mm | - | - | - |
| 1788086430 | 31.67° C | 28% | - | 0 mm | - | - | - |
| 1788085830 | 31.67° C | 28% | - | 0 mm | - | - | - |
| 1788084330 | 31.67° C | 26% | - | 0 mm | - | - | - |
| 1788083730 | 31.11° C | 26% | - | 0 mm | - | - | - |
| 1788083130 | 31.11° C | 26% | - | 0 mm | - | - | - |
| 1788082530 | 31.11° C | 25% | - | 0 mm | - | - | - |
| 1788081930 | 30.56° C | 26% | - | 0 mm | - | - | - |
| 1788081347 | 30.56° C | 26% | - | 0 mm | - | - | - |
| 1788080747 | 30° C | 27% | - | 0 mm | - | - | - |
| 1788080147 | 30° C | 26% | - | 0 mm | - | - | - |
| 1788079547 | 29.44° C | 31% | - | 0 mm | - | - | - |
| 1788078947 | 28.33° C | 35% | - | 0 mm | - | - | - |
| 1788078322 | 28.33° C | 35% | - | 0 mm | - | - | - |
| 1788077722 | 27.78° C | 37% | - | 0 mm | - | - | - |
| 1788076555 | 27.22° C | 39% | - | 0 mm | - | - | - |
| 1788075955 | 26.11° C | 41% | - | 0 mm | - | - | - |
| 1788075355 | 26.11° C | 41% | - | 0 mm | - | - | - |
| 1788074755 | 25.56° C | 41% | - | 0 mm | - | - | - |
| 1788074155 | 25.56° C | 42% | - | 0 mm | - | - | - |
| 1788073555 | 25.56° C | 41% | - | 0 mm | - | - | - |
| 1788072914 | 25° C | 41% | - | 0 mm | - | - | - |
| 1788072314 | 24.44° C | 42% | - | 0 mm | - | - | - |
| 1788071714 | 23.89° C | 43% | - | 0 mm | - | - | - |
| 1788071114 | 23.89° C | 43% | - | 0 mm | - | - | - |
* Rain latest hour (hover to see other rain measurements)
** Current wind speed in m/s (hover to see current wind gust speed)